Time;durP1;ratioP1;P1;durP2;ratioP2;P2;SDS_P1;SDS_P2;PMS_P1;PMS_P2;Temp;Humidity;BMP_temperature;BMP_pressure;BME280_temperature;BME280_humidity;BME280_pressure;Samples;Min_cycle;Max_cycle;Signal;HPM_P1;HPM_P2
2021/12/27 00:02:23;;;;;;;2.87;2.67;;;16.80;52.70;17.50;99487.00;;;;4968542;28;20168;-41
2021/12/27 00:04:48;;;;;;;3.27;2.97;;;16.70;52.50;17.50;99491.00;;;;4968774;28;20283;-39
2021/12/27 00:07:15;;;;;;;3.27;2.97;;;16.70;52.60;17.50;99491.00;;;;4968635;28;20177;-39
2021/12/27 00:09:41;;;;;;;3.00;2.80;;;16.70;52.50;17.50;99496.00;;;;4968367;28;20750;-39
2021/12/27 00:12:07;;;;;;;2.97;2.73;;;16.60;52.50;17.50;99489.00;;;;4968714;28;20180;-40
2021/12/27 00:14:33;;;;;;;2.90;2.63;;;16.60;52.60;17.50;99483.00;;;;4968484;28;20217;-40
2021/12/27 00:16:59;;;;;;;2.87;2.67;;;16.60;52.70;17.40;99479.00;;;;4974406;28;20173;-40
2021/12/27 00:19:25;;;;;;;2.97;2.67;;;16.60;52.80;17.40;99478.00;;;;4969563;28;20169;-40
2021/12/27 00:21:50;;;;;;;3.00;2.80;;;16.50;52.70;17.40;99468.00;;;;4968173;28;20176;-40
2021/12/27 00:24:16;;;;;;;2.80;2.60;;;16.50;53.00;17.40;99473.00;;;;4968089;28;20177;-40
2021/12/27 00:26:44;;;;;;;2.90;2.70;;;16.50;52.70;17.30;99485.00;;;;4968216;28;20243;-39
2021/12/27 00:29:10;;;;;;;2.90;2.70;;;16.40;52.80;17.30;99478.00;;;;4967968;28;20184;-40
2021/12/27 00:31:36;;;;;;;2.90;2.70;;;16.50;52.90;17.30;99468.00;;;;4967809;28;20197;-39
2021/12/27 00:34:02;;;;;;;3.33;2.73;;;16.40;52.80;17.30;99471.00;;;;4967978;28;20173;-40
2021/12/27 00:36:27;;;;;;;2.90;2.70;;;16.40;52.90;17.30;99468.00;;;;4967905;28;20265;-40
2021/12/27 00:38:53;;;;;;;3.00;2.80;;;16.30;52.80;17.20;99467.00;;;;4968045;28;20169;-40
2021/12/27 00:41:19;;;;;;;2.73;2.53;;;16.30;52.90;17.20;99465.00;;;;4967739;28;20180;-40
2021/12/27 00:43:45;;;;;;;2.80;2.60;;;16.30;53.00;17.20;99450.00;;;;4967799;28;20172;-40
2021/12/27 00:46:10;;;;;;;3.00;2.80;;;16.30;53.00;17.20;99457.00;;;;4966506;28;20193;-40
2021/12/27 00:48:36;;;;;;;2.90;2.70;;;16.30;52.90;17.10;99460.00;;;;4967532;28;20215;-40
2021/12/27 00:51:03;;;;;;;2.90;2.70;;;16.20;52.90;17.10;99455.00;;;;4967609;28;20550;-39
2021/12/27 00:53:29;;;;;;;2.70;2.50;;;16.20;52.90;17.10;99460.00;;;;4967211;28;20177;-39
2021/12/27 00:55:55;;;;;;;2.90;2.70;;;16.20;53.00;17.10;99462.00;;;;4966831;28;20721;-40
2021/12/27 00:58:21;;;;;;;2.87;2.67;;;16.10;53.00;17.10;99456.00;;;;4967250;28;20184;-39
2021/12/27 01:00:46;;;;;;;3.00;2.80;;;16.10;53.30;17.10;99454.00;;;;4967424;28;20189;-39
2021/12/27 01:03:12;;;;;;;3.07;2.87;;;16.10;53.10;17.10;99450.00;;;;4967779;28;20203;-41
2021/12/27 01:05:38;;;;;;;2.90;2.70;;;16.10;53.00;17.10;99458.00;;;;4967735;28;20215;-39
2021/12/27 01:08:05;;;;;;;2.63;2.43;;;16.10;52.80;17.10;99459.00;;;;4967579;28;20180;-39
2021/12/27 01:18:06;;;;;;;2.87;2.67;;;16.00;53.10;17.10;99462.00;;;;4967592;28;20177;-39
2021/12/27 01:20:32;;;;;;;3.10;2.90;;;16.00;52.80;17.10;99460.00;;;;4967286;28;20264;-39
2021/12/27 01:22:58;;;;;;;2.60;2.40;;;15.90;53.00;17.00;99462.00;;;;4968181;28;20207;-40
2021/12/27 01:25:24;;;;;;;2.70;2.50;;;15.90;53.00;17.10;99456.00;;;;4965970;28;20197;-40
2021/12/27 01:27:51;;;;;;;2.80;2.60;;;15.90;52.90;17.00;99461.00;;;;4967707;28;20177;-40
2021/12/27 01:30:20;;;;;;;2.50;2.30;;;15.90;53.10;17.00;99455.00;;;;4967410;28;20296;-40
2021/12/27 01:32:51;;;;;;;2.80;2.60;;;15.90;52.90;17.00;99460.00;;;;4967379;28;20317;-40
2021/12/27 01:35:17;;;;;;;2.73;2.53;;;15.90;53.10;17.00;99456.00;;;;4967220;28;20292;-40
2021/12/27 01:37:43;;;;;;;2.70;2.50;;;15.80;53.00;17.00;99446.00;;;;4967201;28;20670;-40
2021/12/27 01:40:11;;;;;;;2.70;2.50;;;15.80;53.10;17.00;99450.00;;;;4967353;28;20200;-40
2021/12/27 01:42:37;;;;;;;2.80;2.60;;;15.80;53.20;17.00;99447.00;;;;4967268;28;20177;-40
2021/12/27 01:45:04;;;;;;;2.77;2.57;;;15.80;53.10;17.00;99449.00;;;;4967046;28;20204;-40
2021/12/27 01:47:31;;;;;;;2.80;2.60;;;15.80;53.20;16.90;99441.00;;;;4966860;28;20267;-40
2021/12/27 01:49:56;;;;;;;2.70;2.50;;;15.80;53.20;16.90;99441.00;;;;4967220;28;20200;-40
2021/12/27 01:52:22;;;;;;;2.70;2.50;;;15.70;53.00;16.90;99442.00;;;;4966939;28;20270;-40
2021/12/27 01:54:50;;;;;;;2.70;2.50;;;15.70;53.20;16.90;99442.00;;;;4967128;28;20689;-40
2021/12/27 01:57:16;;;;;;;2.50;2.30;;;15.70;53.20;16.90;99441.00;;;;4965736;28;20197;-40
2021/12/27 01:59:42;;;;;;;2.70;2.50;;;15.70;53.10;16.90;99436.00;;;;4967108;28;20880;-40
2021/12/27 02:02:07;;;;;;;2.63;2.43;;;15.70;53.10;16.90;99440.00;;;;4966670;28;20189;-40
2021/12/27 02:04:33;;;;;;;2.80;2.53;;;15.60;53.10;16.80;99430.00;;;;4966768;28;20216;-40
2021/12/27 02:06:59;;;;;;;2.63;2.43;;;15.60;53.20;16.80;99429.00;;;;4966209;28;20340;-40
2021/12/27 02:09:34;;;;;;;2.80;2.60;;;15.60;53.70;16.80;99420.00;;;;4969829;28;20266;-40
2021/12/27 02:12:00;;;;;;;2.73;2.53;;;15.60;53.10;16.80;99438.00;;;;4955354;28;20192;-40
2021/12/27 02:14:26;;;;;;;2.57;2.37;;;15.60;53.10;16.80;99445.00;;;;4970572;28;20588;-40
2021/12/27 02:16:52;;;;;;;2.70;2.50;;;15.60;53.10;16.80;99447.00;;;;4970569;28;20165;-40
2021/12/27 02:19:17;;;;;;;2.70;2.50;;;15.60;53.10;16.80;99447.00;;;;4970526;28;20169;-40
2021/12/27 02:21:43;;;;;;;2.50;2.30;;;15.50;53.20;16.80;99445.00;;;;4970485;28;20234;-40
2021/12/27 02:24:10;;;;;;;2.83;2.60;;;15.50;53.70;16.70;99437.00;;;;4970519;28;20204;-40
2021/12/27 02:26:36;;;;;;;2.53;2.33;;;15.50;53.30;16.70;99440.00;;;;4970476;28;20391;-40
2021/12/27 02:29:01;;;;;;;2.73;2.53;;;15.50;53.30;16.70;99440.00;;;;4956792;28;20182;-39
2021/12/27 02:31:28;;;;;;;2.50;2.30;;;15.50;53.40;16.70;99438.00;;;;4950911;28;20209;-40
2021/12/27 02:33:53;;;;;;;2.70;2.50;;;15.50;53.30;16.70;99437.00;;;;4951011;28;20165;-39
2021/12/27 02:36:21;;;;;;;2.50;2.30;;;15.50;53.40;16.60;99436.00;;;;4950813;28;20949;-39
2021/12/27 02:38:47;;;;;;;2.40;2.20;;;15.50;53.30;16.60;99421.00;;;;4950925;28;20178;-40
2021/12/27 02:41:13;;;;;;;2.50;2.30;;;15.50;53.40;16.60;99423.00;;;;4950663;28;20185;-40
2021/12/27 02:43:42;;;;;;;2.57;2.37;;;15.40;53.40;16.60;99422.00;;;;4950992;28;20185;-39
2021/12/27 02:46:10;;;;;;;2.70;2.50;;;15.40;54.80;16.60;99430.00;;;;4950640;28;20280;-39
2021/12/27 02:48:46;;;;;;;2.67;2.47;;;15.40;54.60;16.60;99408.00;;;;4950505;28;20244;-40
2021/12/27 02:51:12;;;;;;;2.40;2.20;;;15.40;54.60;16.60;99430.00;;;;4950695;28;20603;-40
2021/12/27 02:53:38;;;;;;;2.50;2.30;;;15.40;54.50;16.60;99424.00;;;;4950783;28;20170;-40
2021/12/27 02:56:06;;;;;;;2.73;2.53;;;15.40;54.40;16.50;99421.00;;;;4949422;29;20249;-40
2021/12/27 02:58:32;;;;;;;2.77;2.30;;;15.30;54.20;16.60;99431.00;;;;4950940;28;20182;-40
2021/12/27 03:01:04;;;;;;;2.70;2.50;;;15.40;54.70;16.50;99427.00;;;;4950495;28;20236;-40
2021/12/27 03:03:30;;;;;;;2.77;2.57;;;15.40;54.40;16.50;99424.00;;;;4950610;28;20158;-40
2021/12/27 03:05:56;;;;;;;2.60;2.40;;;15.30;54.10;16.50;99413.00;;;;4950516;28;20213;-39
2021/12/27 03:08:22;;;;;;;2.60;2.40;;;15.40;54.30;16.50;99410.00;;;;4950573;28;20264;-40
2021/12/27 03:10:53;;;;;;;2.70;2.30;;;15.40;54.10;16.50;99418.00;;;;4950582;28;20799;-40
2021/12/27 03:13:23;;;;;;;2.40;2.20;;;15.40;54.00;16.50;99409.00;;;;4950450;28;20253;-40
2021/12/27 03:16:00;;;;;;;2.50;2.30;;;15.40;54.10;16.50;99407.00;;;;4950351;28;20194;-40
2021/12/27 03:18:26;;;;;;;2.30;2.10;;;15.40;54.10;16.50;99410.00;;;;4950450;28;20150;-40
2021/12/27 03:20:53;;;;;;;2.50;2.30;;;15.30;54.00;16.50;99409.00;;;;4948989;28;20241;-40
2021/12/27 03:23:19;;;;;;;2.50;2.30;;;15.30;54.00;16.40;99395.00;;;;4950372;28;20284;-40
2021/12/27 03:25:45;;;;;;;2.20;2.00;;;15.30;53.90;16.40;99401.00;;;;4950001;28;20268;-40
2021/12/27 03:28:12;;;;;;;2.93;2.03;;;15.30;54.00;16.40;99401.00;;;;4948191;29;20733;-40
2021/12/27 03:30:37;;;;;;;2.40;2.20;;;15.30;54.00;16.40;99391.00;;;;4932995;29;20707;-40
2021/12/27 03:33:04;;;;;;;2.10;2.00;;;15.30;53.90;16.40;99368.00;;;;4949833;28;20198;-40
2021/12/27 03:35:35;;;;;;;2.00;1.90;;;15.30;54.80;16.40;99372.00;;;;4950135;28;20193;-40
2021/12/27 03:38:02;;;;;;;2.17;2.00;;;15.20;54.20;16.40;99375.00;;;;4949991;28;20253;-39
2021/12/27 03:40:28;;;;;;;2.30;2.10;;;15.20;54.00;16.40;99378.00;;;;4949979;28;20181;-40
2021/12/27 03:42:54;;;;;;;2.47;2.20;;;15.20;54.10;16.40;99370.00;;;;4949622;28;20174;-40
2021/12/27 03:45:36;;;;;;;2.10;2.00;;;15.20;54.30;16.40;99381.00;;;;4949435;28;20257;-40
2021/12/27 03:48:03;;;;;;;2.03;1.93;;;15.10;54.00;16.30;99384.00;;;;4949665;28;20289;-40
2021/12/27 03:50:29;;;;;;;2.33;2.13;;;15.10;54.10;16.40;99377.00;;;;4950102;28;20200;-39
2021/12/27 03:52:57;;;;;;;2.30;2.10;;;15.10;54.10;16.30;99390.00;;;;4950282;28;20173;-40
2021/12/27 03:55:23;;;;;;;2.47;2.27;;;15.10;54.00;16.30;99393.00;;;;4951136;28;20186;-40
2021/12/27 03:57:57;;;;;;;2.20;2.00;;;15.10;54.30;16.30;99379.00;;;;4949513;28;20162;-40
2021/12/27 04:02:55;;;;;;;2.07;1.97;;;15.10;54.30;16.30;99381.00;;;;4949801;28;20610;-40
2021/12/27 04:05:21;;;;;;;1.97;1.87;;;15.10;54.30;16.30;99380.00;;;;4949351;28;20842;-40
2021/12/27 04:07:55;;;;;;;2.30;2.10;;;15.10;54.10;16.20;99380.00;;;;4948880;28;20586;-39
2021/12/27 04:10:21;;;;;;;2.27;2.10;;;15.10;54.00;16.20;99384.00;;;;4949388;28;20198;-40
2021/12/27 04:12:47;;;;;;;2.10;2.00;;;15.10;54.10;16.20;99380.00;;;;4948977;28;20260;-40
2021/12/27 04:15:12;;;;;;;2.33;2.10;;;15.00;54.10;16.20;99375.00;;;;4949103;28;20190;-40
2021/12/27 04:17:38;;;;;;;2.10;2.00;;;15.00;54.10;16.20;99365.00;;;;4949154;28;20178;-40
2021/12/27 04:20:05;;;;;;;3.33;2.20;;;15.00;54.10;16.20;99373.00;;;;4948942;28;20177;-40
2021/12/27 04:22:33;;;;;;;1.80;1.70;;;15.00;54.10;16.20;99375.00;;;;4949143;28;20544;-40
2021/12/27 04:25:03;;;;;;;2.17;1.97;;;15.10;54.10;16.20;99369.00;;;;4950117;28;20194;-40
2021/12/27 04:27:29;;;;;;;2.23;2.00;;;15.00;54.20;16.20;99358.00;;;;4949770;28;20174;-40
2021/12/27 04:29:54;;;;;;;2.37;1.80;;;15.00;54.40;16.20;99359.00;;;;4949461;28;20165;-40
2021/12/27 04:32:20;;;;;;;5.53;2.20;;;15.00;54.50;16.10;99335.00;;;;4948724;28;20193;-40
2021/12/27 04:34:46;;;;;;;2.57;2.03;;;15.00;55.90;16.10;99335.00;;;;4949317;28;20693;-40
2021/12/27 04:37:11;;;;;;;2.33;1.90;;;15.00;54.60;16.10;99331.00;;;;4949199;28;20645;-39
2021/12/27 04:39:37;;;;;;;2.20;2.10;;;15.00;54.40;16.10;99328.00;;;;4949351;28;20201;-40
2021/12/27 04:42:04;;;;;;;1.80;1.70;;;14.90;54.50;16.10;99334.00;;;;4949375;28;20184;-40
2021/12/27 04:44:30;;;;;;;2.13;1.73;;;14.90;54.40;16.10;99333.00;;;;4949453;28;20265;-40
2021/12/27 04:46:56;;;;;;;2.37;2.10;;;15.00;54.40;16.10;99328.00;;;;4958551;28;20189;-40
2021/12/27 04:49:21;;;;;;;2.80;2.00;;;15.00;54.30;16.10;99327.00;;;;4968582;28;20192;-40
2021/12/27 04:51:47;;;;;;;2.17;1.80;;;15.00;54.40;16.10;99343.00;;;;4970407;28;20196;-40
2021/12/27 04:54:13;;;;;;;2.13;1.93;;;15.00;54.30;16.00;99346.00;;;;4970287;28;20165;-40
2021/12/27 04:56:38;;;;;;;2.40;2.10;;;15.00;54.10;16.00;99257.00;;;;4970080;28;20240;-40
2021/12/27 04:59:04;;;;;;;2.13;2.00;;;15.00;54.20;16.00;99338.00;;;;4973280;28;20173;-40
2021/12/27 05:01:30;;;;;;;1.80;1.70;;;15.00;54.10;16.00;99340.00;;;;4975502;28;20184;-40
2021/12/27 05:03:56;;;;;;;2.27;2.07;;;14.90;54.10;16.00;99335.00;;;;4970663;28;20172;-40
2021/12/27 05:06:21;;;;;;;2.93;2.00;;;14.90;54.20;16.00;99336.00;;;;4970132;28;20192;-40
2021/12/27 05:08:48;;;;;;;3.73;1.90;;;14.90;54.20;16.00;99335.00;;;;4969699;28;20761;-40
2021/12/27 05:11:14;;;;;;;1.87;1.77;;;14.90;54.00;16.00;99326.00;;;;4969164;28;20576;-40
2021/12/27 05:13:40;;;;;;;2.00;1.90;;;14.90;54.10;16.00;99325.00;;;;4969945;28;20176;-40
2021/12/27 05:16:06;;;;;;;2.70;2.00;;;14.90;54.20;16.00;99313.00;;;;4969999;28;20196;-40
2021/12/27 05:18:32;;;;;;;2.00;1.80;;;14.90;54.20;16.00;99318.00;;;;4969547;28;20224;-39
2021/12/27 05:20:58;;;;;;;2.07;1.90;;;14.90;54.20;16.00;99324.00;;;;4970351;28;20223;-40
2021/12/27 05:23:23;;;;;;;2.03;1.93;;;14.80;54.20;16.00;99316.00;;;;4969965;28;20181;-40
2021/12/27 05:25:49;;;;;;;2.23;2.03;;;14.90;54.50;15.90;99307.00;;;;4969926;28;20189;-40
2021/12/27 05:28:15;;;;;;;2.47;2.27;;;14.80;54.50;15.90;99319.00;;;;4969334;28;20202;-40
2021/12/27 05:30:43;;;;;;;2.50;2.30;;;14.90;54.30;15.90;99314.00;;;;4969967;28;20207;-40
2021/12/27 05:33:09;;;;;;;2.30;2.10;;;14.90;54.60;15.90;99318.00;;;;4969833;28;20201;-39
2021/12/27 05:35:35;;;;;;;2.63;2.37;;;14.80;54.40;15.90;99307.00;;;;4970080;28;20222;-39
2021/12/27 05:38:01;;;;;;;2.77;2.47;;;14.80;54.30;15.90;99317.00;;;;4969133;28;20231;-40
2021/12/27 05:40:26;;;;;;;2.83;2.43;;;14.80;54.20;15.90;99314.00;;;;4969838;28;20177;-39
2021/12/27 05:42:53;;;;;;;2.63;2.30;;;14.80;54.30;15.90;99312.00;;;;4969526;28;20580;-40
2021/12/27 05:45:19;;;;;;;2.60;2.40;;;14.80;54.20;15.80;99310.00;;;;4969649;28;20284;-40
2021/12/27 05:47:45;;;;;;;2.60;2.40;;;14.80;54.30;15.80;99293.00;;;;4969020;28;20558;-40
2021/12/27 05:50:12;;;;;;;2.60;2.40;;;14.80;54.20;15.80;99307.00;;;;4959857;28;20206;-40
2021/12/27 05:52:37;;;;;;;2.50;2.30;;;14.80;54.20;15.80;99289.00;;;;4949450;28;20613;-40
2021/12/27 05:55:04;;;;;;;2.50;2.30;;;14.80;54.20;15.80;99300.00;;;;4948744;29;20190;-40
2021/12/27 05:57:30;;;;;;;2.50;2.30;;;14.80;54.20;15.70;99307.00;;;;4949629;28;20622;-41
2021/12/27 05:59:56;;;;;;;2.60;2.40;;;14.70;54.20;15.70;99300.00;;;;4949794;29;20208;-40
2021/12/27 06:02:22;;;;;;;2.50;2.30;;;14.80;55.00;15.70;99298.00;;;;4949558;29;20265;-40
2021/12/27 06:04:47;;;;;;;2.50;2.30;;;14.70;54.30;15.70;99309.00;;;;4949919;28;20189;-40
2021/12/27 06:07:13;;;;;;;2.87;2.47;;;14.70;54.30;15.70;99300.00;;;;4953753;28;20150;-40
2021/12/27 06:09:39;;;;;;;2.50;2.30;;;14.70;54.40;15.70;99298.00;;;;4949933;29;20553;-40
2021/12/27 06:12:05;;;;;;;3.03;2.70;;;14.70;54.40;15.70;99305.00;;;;4949671;28;20198;-40
2021/12/27 06:14:31;;;;;;;2.50;2.30;;;14.70;54.50;15.70;99297.00;;;;4949687;28;20184;-40
2021/12/27 06:16:56;;;;;;;2.67;2.47;;;14.70;54.30;15.70;99289.00;;;;4949505;28;20871;-40
2021/12/27 06:19:22;;;;;;;2.50;2.30;;;14.70;54.30;15.60;99274.00;;;;4950375;28;20201;-40
2021/12/27 06:21:48;;;;;;;2.70;2.50;;;14.70;54.30;15.60;99304.00;;;;4949686;28;20178;-40
2021/12/27 06:24:14;;;;;;;2.73;2.53;;;14.70;54.30;15.60;99293.00;;;;4950316;28;20544;-40
2021/12/27 06:26:40;;;;;;;2.97;2.70;;;14.70;54.40;15.60;99295.00;;;;4949189;28;20190;-40
2021/12/27 06:29:05;;;;;;;2.80;2.60;;;14.60;54.30;15.60;99288.00;;;;4949730;28;20540;-41
2021/12/27 06:31:31;;;;;;;2.50;2.30;;;14.60;54.30;15.60;99291.00;;;;4949293;29;20688;-39
2021/12/27 06:33:57;;;;;;;2.90;2.70;;;14.60;54.40;15.60;99295.00;;;;4949726;29;20182;-40
2021/12/27 06:36:24;;;;;;;2.60;2.40;;;14.60;54.20;15.50;99273.00;;;;4949534;29;20190;-40
2021/12/27 06:38:49;;;;;;;2.50;2.30;;;14.60;54.30;15.50;99293.00;;;;4949160;29;20172;-39
2021/12/27 06:41:15;;;;;;;2.80;2.60;;;14.60;54.40;15.50;99299.00;;;;4949518;29;20170;-39
2021/12/27 06:43:41;;;;;;;2.70;2.50;;;14.60;54.40;15.50;99317.00;;;;4949379;28;20197;-39
2021/12/27 06:46:07;;;;;;;2.60;2.40;;;14.60;54.40;15.50;99319.00;;;;4949054;29;20793;-39
2021/12/27 06:48:32;;;;;;;2.60;2.40;;;14.60;54.40;15.50;99305.00;;;;4947787;29;20185;-41
2021/12/27 06:50:58;;;;;;;2.50;2.30;;;14.60;54.40;15.50;99305.00;;;;4949293;28;20193;-41
2021/12/27 06:53:28;;;;;;;2.63;2.43;;;14.50;54.30;15.50;99300.00;;;;4949307;28;20159;-39
2021/12/27 06:55:54;;;;;;;2.67;2.47;;;14.50;54.30;15.50;99311.00;;;;4952240;29;20201;-39
2021/12/27 06:58:19;;;;;;;2.70;2.50;;;14.50;54.30;15.50;99293.00;;;;4952460;29;20684;-39
2021/12/27 07:00:45;;;;;;;2.73;2.53;;;14.50;54.30;15.50;99294.00;;;;4952422;29;20181;-39
2021/12/27 07:03:11;;;;;;;2.70;2.50;;;14.50;54.30;15.50;99287.00;;;;4952972;29;20173;-40
2021/12/27 07:05:37;;;;;;;2.53;2.33;;;14.50;54.40;15.50;99298.00;;;;4953188;29;20197;-40
2021/12/27 07:08:03;;;;;;;2.50;2.10;;;14.40;54.20;15.20;99294.00;;;;4952211;28;20574;-40
2021/12/27 07:10:31;;;;;;;4.07;2.30;;;14.40;54.60;15.50;99289.00;;;;4952619;28;20194;-40
2021/12/27 07:12:57;;;;;;;2.50;2.27;;;14.40;54.90;15.50;99297.00;;;;4953548;28;20174;-40
2021/12/27 07:15:23;;;;;;;2.50;2.30;;;14.40;55.00;15.50;99305.00;;;;4952655;29;20198;-39
2021/12/27 07:17:50;;;;;;;4.33;2.43;;;14.40;55.00;15.50;99314.00;;;;4951993;29;20174;-40
2021/12/27 07:20:16;;;;;;;4.33;2.20;;;14.40;54.80;15.50;99316.00;;;;4951275;29;20178;-40
2021/12/27 07:22:42;;;;;;;7.73;2.30;;;14.40;55.00;15.50;99305.00;;;;4952358;28;20177;-40
2021/12/27 07:25:08;;;;;;;3.17;2.23;;;14.40;55.00;15.50;99299.00;;;;4952781;28;20213;-39
2021/12/27 07:27:34;;;;;;;2.00;1.90;;;14.40;55.00;15.50;99289.00;;;;4951703;28;20546;-40
2021/12/27 07:29:59;;;;;;;2.57;2.07;;;14.40;54.70;15.50;99294.00;;;;4952202;29;20280;-40
2021/12/27 07:32:25;;;;;;;3.90;2.00;;;14.40;54.60;15.50;99293.00;;;;4958531;28;20596;-40
2021/12/27 07:34:51;;;;;;;2.27;2.07;;;14.50;54.70;15.50;99290.00;;;;4971653;28;20288;-40
2021/12/27 07:37:17;;;;;;;3.27;2.17;;;14.40;54.60;15.50;99299.00;;;;4970921;28;20184;-40
2021/12/27 07:39:43;;;;;;;2.63;2.00;;;14.40;54.60;15.50;99308.00;;;;4971798;28;20716;-40
2021/12/27 07:42:09;;;;;;;3.43;2.00;;;14.40;54.60;15.50;99304.00;;;;4971328;28;20176;-40
2021/12/27 07:44:35;;;;;;;2.20;2.00;;;14.40;54.70;15.50;99294.00;;;;4971259;28;20161;-40
2021/12/27 07:47:01;;;;;;;2.33;1.90;;;14.30;54.60;15.50;99299.00;;;;4970131;28;20185;-39
2021/12/27 07:49:26;;;;;;;2.93;2.10;;;14.30;54.60;15.50;99294.00;;;;4971564;28;20177;-40
2021/12/27 07:51:52;;;;;;;2.17;2.00;;;14.40;54.60;15.50;99289.00;;;;4971288;28;20208;-40
2021/12/27 07:54:18;;;;;;;2.40;2.20;;;14.30;54.40;15.40;99293.00;;;;4971429;28;20253;-40
2021/12/27 07:56:44;;;;;;;2.17;2.00;;;14.40;54.30;15.40;99289.00;;;;4970473;28;20678;-41
2021/12/27 07:59:10;;;;;;;2.10;2.00;;;14.30;54.20;15.40;99200.00;;;;4937644;28;20177;-39
2021/12/27 08:01:37;;;;;;;2.17;1.97;;;14.40;54.40;15.40;99280.00;;;;4969935;28;20181;-39
2021/12/27 08:04:03;;;;;;;2.20;2.00;;;14.30;54.20;15.40;99275.00;;;;4971014;28;20181;-40
2021/12/27 08:06:29;;;;;;;2.13;2.03;;;14.40;54.30;15.40;99277.00;;;;4969988;28;20197;-39
2021/12/27 08:08:55;;;;;;;2.00;1.90;;;14.30;54.50;15.40;99262.00;;;;4970479;28;20686;-39
2021/12/27 08:11:21;;;;;;;1.90;1.80;;;14.30;54.50;15.40;99267.00;;;;4970640;28;20248;-41
2021/12/27 08:13:46;;;;;;;2.50;2.07;;;14.30;54.20;15.40;99267.00;;;;4970812;28;20252;-40
2021/12/27 08:16:12;;;;;;;2.00;1.80;;;14.30;54.20;15.30;99250.00;;;;4970983;28;20194;-40
2021/12/27 08:18:41;;;;;;;2.00;1.90;;;14.30;54.30;15.30;99263.00;;;;4969474;28;20184;-39
2021/12/27 08:21:06;;;;;;;2.63;2.13;;;14.30;54.40;15.30;99267.00;;;;4970656;28;20168;-40
2021/12/27 08:23:32;;;;;;;2.10;2.00;;;14.30;54.20;15.30;99276.00;;;;4970947;28;20192;-40
2021/12/27 08:25:58;;;;;;;2.17;2.00;;;14.20;54.10;15.30;99270.00;;;;4970955;28;20212;-39
2021/12/27 08:28:24;;;;;;;2.10;2.00;;;14.30;54.30;15.30;99268.00;;;;4970134;28;20699;-41
2021/12/27 08:30:49;;;;;;;2.30;2.00;;;14.30;54.20;15.30;99272.00;;;;4970359;28;20569;-39
2021/12/27 08:33:15;;;;;;;2.30;2.10;;;14.30;54.20;15.30;99263.00;;;;4970621;28;20169;-39
2021/12/27 08:35:41;;;;;;;2.40;1.90;;;14.20;54.20;15.30;99254.00;;;;4957924;28;20193;-39
2021/12/27 08:38:06;;;;;;;2.00;1.80;;;14.20;54.20;15.30;99250.00;;;;4950761;28;20181;-39
2021/12/27 08:40:32;;;;;;;2.20;2.00;;;14.20;54.10;15.30;99242.00;;;;4951031;28;20177;-39
2021/12/27 08:42:58;;;;;;;2.17;1.80;;;14.20;54.20;15.30;99255.00;;;;4950994;28;20253;-39
2021/12/27 08:45:24;;;;;;;2.13;2.03;;;14.20;54.50;15.30;99254.00;;;;4950680;28;20252;-39
2021/12/27 08:47:49;;;;;;;2.30;2.10;;;14.20;54.10;15.20;99254.00;;;;4950490;28;20264;-39
2021/12/27 08:50:17;;;;;;;2.70;1.90;;;14.20;54.20;15.20;99252.00;;;;4950955;28;20178;-40
2021/12/27 08:52:44;;;;;;;2.00;1.90;;;14.20;54.10;15.20;99245.00;;;;4950727;28;20181;-40
2021/12/27 08:55:11;;;;;;;2.00;1.90;;;14.20;54.30;15.20;99244.00;;;;4950831;28;20759;-41
2021/12/27 08:57:36;;;;;;;2.10;2.00;;;14.20;54.10;15.20;99241.00;;;;4950029;28;20180;-39
2021/12/27 09:00:05;;;;;;;2.23;2.10;;;14.20;54.10;15.20;99241.00;;;;4950756;29;20250;-39
2021/12/27 09:02:31;;;;;;;2.20;2.00;;;14.10;54.00;15.20;99243.00;;;;4950221;28;20178;-39
2021/12/27 09:04:57;;;;;;;2.27;2.00;;;14.20;54.10;15.20;99244.00;;;;4950636;28;20201;-40
2021/12/27 09:07:22;;;;;;;2.00;1.90;;;14.20;54.10;15.20;99240.00;;;;4950079;28;20196;-40
2021/12/27 09:09:48;;;;;;;2.07;1.97;;;14.10;54.30;15.20;99239.00;;;;4950179;28;20174;-40
2021/12/27 09:12:14;;;;;;;2.27;2.07;;;14.10;54.00;15.20;99242.00;;;;4950057;29;20337;-40
2021/12/27 09:14:40;;;;;;;1.87;1.77;;;14.10;54.10;15.20;99240.00;;;;4950855;28;20170;-40
2021/12/27 09:17:06;;;;;;;2.30;2.00;;;14.10;54.20;15.20;99232.00;;;;4950334;28;20166;-41
2021/12/27 09:19:31;;;;;;;1.90;1.80;;;14.20;54.10;15.20;99233.00;;;;4950498;28;20261;-39
2021/12/27 09:21:57;;;;;;;2.13;2.03;;;14.10;54.00;15.20;99235.00;;;;4950397;28;20668;-39
2021/12/27 09:24:23;;;;;;;2.13;1.80;;;14.10;54.20;15.10;99242.00;;;;4950122;28;20181;-39
2021/12/27 09:26:49;;;;;;;1.90;1.80;;;14.10;54.10;15.10;99245.00;;;;4950189;28;20611;-40
2021/12/27 09:29:15;;;;;;;1.97;1.87;;;14.10;54.10;15.10;99231.00;;;;4950739;28;20177;-40
2021/12/27 09:31:40;;;;;;;2.37;1.80;;;14.10;54.00;15.10;99231.00;;;;4958344;28;20263;-40
2021/12/27 09:34:06;;;;;;;1.80;1.70;;;14.10;54.00;15.10;99223.00;;;;4953424;28;20185;-39
2021/12/27 09:36:32;;;;;;;1.90;1.80;;;14.10;54.00;15.10;99227.00;;;;4950429;29;20196;-39
2021/12/27 09:38:58;;;;;;;1.90;1.80;;;14.10;54.20;15.10;99231.00;;;;4963274;28;20184;-39
2021/12/27 09:41:24;;;;;;;2.00;1.90;;;14.00;53.90;15.10;99231.00;;;;4969873;28;20509;-41
2021/12/27 09:43:52;;;;;;;2.20;2.00;;;14.10;54.20;15.10;99238.00;;;;4969826;28;20208;-39
2021/12/27 09:46:18;;;;;;;1.83;1.73;;;14.10;54.00;15.10;99245.00;;;;4969298;28;20223;-39
2021/12/27 09:48:44;;;;;;;2.00;1.90;;;14.00;54.20;15.10;99238.00;;;;4968637;28;20694;-39
2021/12/27 09:51:10;;;;;;;1.83;1.73;;;14.00;54.20;15.10;99231.00;;;;4969142;28;20553;-39
2021/12/27 09:53:37;;;;;;;1.90;1.80;;;14.00;54.30;15.10;99228.00;;;;4969135;28;20176;-39
2021/12/27 09:56:09;;;;;;;2.17;1.70;;;14.10;54.00;15.10;99227.00;;;;4967940;28;20189;-39
2021/12/27 09:58:35;;;;;;;2.00;1.90;;;14.00;54.30;15.10;99223.00;;;;4968772;28;20247;-39
2021/12/27 10:01:03;;;;;;;7.23;2.40;;;13.90;54.50;15.10;99210.00;;;;4968521;28;20764;-39
2021/12/27 10:03:30;;;;;;;11.90;3.07;;;13.90;54.90;15.10;99216.00;;;;4969070;28;20259;-39
2021/12/27 10:06:10;;;;;;;13.13;2.97;;;14.00;55.20;15.10;99214.00;;;;4969266;28;20193;-39
2021/12/27 10:08:36;;;;;;;11.87;3.00;;;14.20;55.40;15.20;99210.00;;;;4967838;28;20169;-38
2021/12/27 10:11:02;;;;;;;10.30;3.43;;;14.30;55.40;15.20;99230.00;;;;4968352;28;20196;-39
2021/12/27 10:13:28;;;;;;;10.97;3.00;;;14.60;55.20;15.30;99224.00;;;;4956067;28;20987;-38
2021/12/27 10:15:54;;;;;;;11.07;3.10;;;14.80;54.80;15.40;99220.00;;;;4950240;28;20439;-39
2021/12/27 10:18:21;;;;;;;10.00;2.90;;;15.10;54.50;15.60;99227.00;;;;4949413;28;20204;-38
2021/12/27 10:20:47;;;;;;;7.13;3.03;;;15.40;54.30;15.70;99208.00;;;;4916454;29;20240;-40
2021/12/27 10:23:14;;;;;;;4.83;2.40;;;15.70;54.00;15.90;99184.00;;;;4949583;29;20178;-40
2021/12/27 10:25:39;;;;;;;11.30;2.63;;;15.90;53.80;16.10;99196.00;;;;4949392;28;20189;-40
2021/12/27 10:28:05;;;;;;;9.27;2.83;;;16.20;53.50;16.30;99195.00;;;;4947855;28;20261;-40
2021/12/27 10:30:34;;;;;;;8.63;2.73;;;16.50;53.30;16.50;99203.00;;;;4951903;29;20190;-40
2021/12/27 10:33:04;;;;;;;7.73;2.40;;;16.60;53.20;16.60;99193.00;;;;4952834;28;20224;-40
2021/12/27 10:35:47;;;;;;;8.03;2.73;;;16.80;53.00;16.80;99117.00;;;;4953090;28;20736;-40
2021/12/27 10:38:22;;;;;;;7.20;2.73;;;16.90;53.00;16.90;99178.00;;;;4952010;28;20193;-40
2021/12/27 10:40:56;;;;;;;5.93;2.60;;;17.00;53.10;17.00;99186.00;;;;4953291;28;20689;-39
2021/12/27 10:43:36;;;;;;;4.53;2.80;;;17.10;52.90;17.10;99173.00;;;;4934865;29;20181;-40
2021/12/27 10:46:03;;;;;;;7.00;2.50;;;17.10;53.10;17.20;99183.00;;;;4953679;28;20205;-39
2021/12/27 10:48:37;;;;;;;5.00;2.40;;;17.30;53.20;17.30;99171.00;;;;4955002;29;20209;-45
2021/12/27 10:51:03;;;;;;;3.23;2.03;;;17.30;53.20;17.40;99170.00;;;;4957346;28;20201;-39
2021/12/27 10:53:46;;;;;;;4.67;2.50;;;17.40;53.10;17.50;99177.00;;;;4936359;29;20319;-39
2021/12/27 10:56:12;;;;;;;6.17;2.13;;;17.40;53.00;17.60;99171.00;;;;4952695;28;20190;-39
2021/12/27 10:58:38;;;;;;;4.50;2.10;;;17.50;53.10;17.60;99150.00;;;;4952386;28;20174;-40
2021/12/27 11:01:09;;;;;;;5.83;2.23;;;17.60;53.20;17.70;99178.00;;;;4935259;29;20178;-39
2021/12/27 11:03:39;;;;;;;5.57;2.30;;;17.60;53.10;17.80;99180.00;;;;4952965;28;20224;-40